« ゴルフ 富山空港 2014/10/8 wed | トップページ | 「空の日」その2 能登空港 2014/10/12 sun »

2014/10/13

「空の日」 能登空港 2014/10/12 sun

能登空港の「空の日」記念行事、のと里山空港空の日フェスタ&日本航空学園「航空祭」が今年も開催された。台風19号の脚が遅いため、幸いにも晴天に恵まれた。

20141012_rjnw_00jaa

早朝の航空学園。いつものYSがお客さんを待っている。

RJNW 112300Z 07009KT 9999 FEW030 16/14 Q1023

20141012_rjnw_01ja6113

8時過ぎ、展示の準備が始まり、へりが草地へ移動。

20141012_rjnw_02fdp

消防隊も始業点検。

20141012_rjnw_03ja2397

学園の天候調査を兼ねたオープニングフライトが始まった。

JA2397 Valentin Taifun 17E

20141012_rjnw_04ja2436

3機飛んで、10分ほどで帰ってきた。

JA2436 SCHEIBE SF25C Falke

20141012_rjnw_05ja4228

JA4228 Christen industries A-1 Husky

RJNW 120000Z 09008KT 060V120 9999 FEW030 18/14 Q1023

20141012_rjnw_06ja4228

9時を回ってフライトショー。3機+1へりによる編隊フライトです。

20141012_rjnw_07ja4228

4機が連続離陸

20141012_rjnw_08ja4228

最初は、ハスキー君のソロ

20141012_rjnw_09ja2397

3機が編隊で会場に近づきます。

20141012_rjnw_10ja2397

ハスキー君が編隊に加わった4機で会場通過。

20141012_rjnw_11ja6113

次は、へりによるソロフライト。

20141012_rjnw_12ja6113

JA6113 Bell 206B

20141012_rjnw_13ja2397

後の3機が再度会場を航過して・・ 

20141012_rjnw_14ja6113

へりを中心にして、チビクロサンボ・・

20141012_rjnw_15ja2397

今度は、モグラ君がソロ。

20141012_rjnw_16ja2436

ラストは、南側からレベルオープナーでフライト終了。

20141012_rjnw_17ja65an

午前の定期便が背風でもRW25アプローチ

20141012_rjnw_18ja65an

20141012_rjnw_19ja65an

ANA747 RJTT-RJNW JA65AN B737-881

20141012_rjnw_20ja65an

滑走路を引き返してきて、エプロンに・・・

20141012_rjnw_21ja65an

待っていたのは、空港消防隊による放水。

20141012_rjnw_22ja65an

搭乗客は、ビックリだね!

RJNW 120100Z 08007KT 030V130 9999 FEW030 19/14 Q1022

20141012_rjnw_23ja65an

20141012_rjnw_24ja65an

20141012_rjnw_25ja65an

ANA748 RJNW-RJTT JA65AN B737-881

RJNW 120200Z 10005KT 060V140 CAVOK 20/14 Q1022

20141012_rjnw_26ja893f

救難展示を行う石川県消防防災へり「はくさん」が到着。

20141012_rjnw_27ja893f

到着して、展示を始めようとするが・・・ チョットまてー

JA893F B412

RJNW 120300Z 11004KT CAVOK 20/14 Q1021

20141012_rjnw_28ja525a

上空にIFR機。富山のアシアナ出発に掛かって、能登VORでホールドしていた。

20141012_rjnw_29ja525a

ようやく、降りてきたのはコーナンのサイテーション

20141012_rjnw_30ja525a

JA525A Cessna 525A Citation CJ1

防災へりの展示は、その2で・・

|

« ゴルフ 富山空港 2014/10/8 wed | トップページ | 「空の日」その2 能登空港 2014/10/12 sun »

能登空港」カテゴリの記事

コメント

コメントを書く



(ウェブ上には掲載しません)


コメントは記事投稿者が公開するまで表示されません。



トラックバック


この記事へのトラックバック一覧です: 「空の日」 能登空港 2014/10/12 sun:

« ゴルフ 富山空港 2014/10/8 wed | トップページ | 「空の日」その2 能登空港 2014/10/12 sun »